KLEX/LEX METAR and TAF weather

Enter ICAO airport designator
Station Type Date Time Source
KLEX METAR 2020/01/24 20:54 UTC NOAA

KLEX 242054Z 22010KT 5SM -RA BKN037 OVC049 08/04 A2982 RMK AO2 PK WND 25031/2028 RAE1955B29 SLP101 P0005 60008 T00780039 55014


Station Type Date Time Source
KLEX Decoded METAR 2020/01/24 20:54 UTC NOAA

LEXINGTON BLUE GRASS AIRPORT, KY, United States (KLEX) 38-02N 084-36W 300M
Jan 24, 2020 - 03:54 PM EST / 2020.01.24 2054 UTC
Wind: from the SW (220 degrees) at 12 MPH (10 KT):0
Visibility: 5 mile(s):0
Sky conditions: overcast
Weather: light rain
Precipitation last hour: 0.05 inches
Temperature: 46.0 F (7.8 C)
Dew Point: 39.0 F (3.9 C)
Relative Humidity: 76%
Pressure (altimeter): 29.82 in. Hg (1009 hPa)
Pressure tendency: 0.04 inches (1.4 hPa) lower than three hours ago
ob: KLEX 242054Z 22010KT 5SM -RA BKN037 OVC049 08/04 A2982 RMK AO2 PK WND 25031/2028 RAE1955B29 SLP101 P0005 60008 T00780039 55014
cycle: 21

Station Type Date Time Source
KLEX TAF 2020/01/24 18:22 UTC NOAA

TAF KLEX 241720Z 2418/2518 20008KT 6SM -RA BKN030
FM242300 21006KT P6SM VCSH BKN045
FM250100 21006KT P6SM OVC022
TEMPO 2501/2502 4SM -RA OVC015
FM250200 21008KT P6SM VCSH OVC014
FM250400 22009KT 6SM BR OVC010
FM251500 24011G19KT P6SM OVC011

Example: see airport list